EHJA

J6-a Sea

J6-a Sea, The Netherlands
METAR EHJA 161825Z AUTO 25014KT 9999 FEW015/// SCT028/// BKN033/// 07/00 Q0996 W///H///
Observed Flight Rules
Jan-16 @ 18:25 UTC (23 minutes ago) Visual Flight Rules
Wind Visibility Clouds
250° at 14 knots 10,000+ meters
  • Few at 1,500' AGL
  • Scattered at 2,800' AGL
  • Broken at 3,300' AGL
Temperatures Readings
Current 7°C / 45°F
Dewpoint 0°C / 32°F
Humidity 61%
Altimeter 29.41" Hg
Pressure 995.92 hPa
Elevation 50
METAR EHJA 161825Z AUTO 25014KT 9999 FEW015/// SCT028/// BKN033/// 07/00 Q0996 W///H///
Observed Flight Rules
Jan-16 @ 18:25 UTC
(23 minutes ago)
VFR
Wind Visibility
250° at 14 knots 10,000+ meters
Clouds
  • Few at 1,500' AGL
  • Scattered at 2,800' AGL
  • Broken at 3,300' AGL
Temperature Dewpoint
7°C / 45°F 0°C / 32°F
Humidity Altimeter Pressure
61% 29.41" Hg 995.92 hPa